Time;durP1;ratioP1;P1;durP2;ratioP2;P2;SDS_P1;SDS_P2;PMS_P1;PMS_P2;Temp;Humidity;BMP_temperature;BMP_pressure;BME280_temperature;BME280_humidity;BME280_pressure;Samples;Min_cycle;Max_cycle;Signal;HPM_P1;HPM_P2
2023/06/15 04:22:34;;;;;;;5.15;3.35;;;;;;;14.95;75.93;100249.94;5089535;28;20397;-68
2023/06/15 04:25:00;;;;;;;4.50;2.72;;;;;;;14.97;75.67;100248.69;5088240;28;20028;-67
2023/06/15 04:27:27;;;;;;;3.63;3.03;;;;;;;15.06;75.46;100243.97;5089434;28;20040;-68
2023/06/15 04:29:53;;;;;;;4.40;2.87;;;;;;;15.11;75.74;100252.25;5087804;28;20036;-68
2023/06/15 04:32:19;;;;;;;3.63;2.78;;;;;;;15.15;75.52;100254.31;5088133;28;20366;-67
2023/06/15 04:34:45;;;;;;;3.97;2.80;;;;;;;15.17;75.01;100259.47;5088084;28;20119;-67
2023/06/15 04:37:13;;;;;;;3.58;3.00;;;;;;;15.19;74.77;100262.78;5087922;28;20531;-67
2023/06/15 04:39:39;;;;;;;4.67;2.93;;;;;;;15.22;74.64;100272.31;5087631;28;20040;-67
2023/06/15 04:42:08;;;;;;;4.38;2.92;;;;;;;15.24;74.36;100281.78;5087830;28;20068;-68
2023/06/15 04:44:35;;;;;;;3.88;2.88;;;;;;;15.28;73.81;100283.06;5087757;28;20382;-68
2023/06/15 04:47:03;;;;;;;3.25;2.72;;;;;;;15.35;74.01;100283.88;5087760;28;20126;-67
2023/06/15 04:49:30;;;;;;;4.20;3.00;;;;;;;15.49;73.17;100282.06;5088761;28;20549;-67
2023/06/15 04:51:56;;;;;;;4.57;3.10;;;;;;;15.55;72.88;100280.41;5087788;28;20032;-68
2023/06/15 04:54:22;;;;;;;3.53;2.88;;;;;;;15.61;71.54;100285.78;5087631;28;20040;-68
2023/06/15 04:56:48;;;;;;;4.45;3.70;;;;;;;15.66;71.55;100287.91;5087461;28;20036;-67
2023/06/15 04:59:13;;;;;;;3.85;3.08;;;;;;;15.76;71.11;100282.94;5087246;28;20127;-67
2023/06/15 05:01:39;;;;;;;3.35;2.88;;;;;;;15.74;71.03;100285.00;5087438;28;20127;-67
2023/06/15 05:04:09;;;;;;;3.65;3.10;;;;;;;15.83;71.35;100289.13;5087904;28;20036;-67
2023/06/15 05:06:35;;;;;;;3.90;3.00;;;;;;;15.91;71.07;100294.31;5087507;28;20517;-67
2023/06/15 05:09:01;;;;;;;3.53;2.83;;;;;;;15.99;70.00;100280.66;5087104;28;20124;-67
2023/06/15 05:11:27;;;;;;;3.13;2.78;;;;;;;16.17;69.41;100285.41;5070474;28;20539;-66
2023/06/15 05:13:54;;;;;;;3.30;2.53;;;;;;;16.21;68.93;100283.94;5087260;28;20036;-66
2023/06/15 05:16:21;;;;;;;4.55;3.03;;;;;;;16.34;69.23;100283.09;5087531;28;20662;-66
2023/06/15 05:18:46;;;;;;;2.70;2.25;;;;;;;16.39;67.96;100277.91;5087085;28;20081;-66
2023/06/15 05:21:12;;;;;;;3.17;2.63;;;;;;;16.44;67.47;100288.88;5087019;28;20036;-66
2023/06/15 05:23:39;;;;;;;2.45;2.22;;;;;;;16.58;67.16;100281.59;5087131;28;20036;-66
2023/06/15 05:26:06;;;;;;;4.77;2.67;;;;;;;16.65;67.44;100287.78;5086990;28;20059;-67
2023/06/15 05:28:32;;;;;;;3.33;2.60;;;;;;;16.97;65.95;100291.41;5086681;28;20473;-67
2023/06/15 05:30:59;;;;;;;4.32;2.78;;;;;;;16.94;65.04;100288.31;5087053;28;20040;-66
2023/06/15 05:33:24;;;;;;;4.65;2.60;;;;;;;17.08;64.51;100297.97;5076230;28;20551;-66
2023/06/15 05:35:50;;;;;;;3.20;2.60;;;;;;;17.11;63.71;100291.34;5073334;28;20052;-66
2023/06/15 05:38:15;;;;;;;3.15;2.28;;;;;;;17.11;63.45;100294.88;5073343;28;20040;-67
2023/06/15 05:40:41;;;;;;;4.28;2.72;;;;;;;17.35;63.74;100294.13;5073203;28;20039;-66
2023/06/15 05:43:07;;;;;;;3.05;2.45;;;;;;;17.30;62.97;100301.19;5073221;28;20036;-66
2023/06/15 05:45:33;;;;;;;2.88;2.20;;;;;;;17.44;62.64;100297.38;5074443;28;20066;-65
2023/06/15 05:48:03;;;;;;;4.10;2.80;;;;;;;17.43;62.63;100302.97;5073010;28;20040;-68
2023/06/15 05:50:30;;;;;;;2.58;2.22;;;;;;;17.50;62.28;100303.75;5072801;28;20130;-68
2023/06/15 05:52:55;;;;;;;5.90;2.72;;;;;;;17.53;61.08;100295.22;5073103;28;20044;-67
2023/06/15 05:55:23;;;;;;;3.00;2.58;;;;;;;17.72;59.70;100304.25;5072929;28;20402;-66
2023/06/15 05:57:48;;;;;;;3.00;2.42;;;;;;;17.67;60.04;100304.03;5072946;28;20032;-66
2023/06/15 06:00:14;;;;;;;3.92;2.53;;;;;;;17.68;60.23;100295.75;5073990;28;20170;-66
2023/06/15 06:02:41;;;;;;;4.32;2.47;;;;;;;17.68;61.14;100306.53;5074417;28;20121;-67
2023/06/15 06:05:07;;;;;;;3.25;2.50;;;;;;;17.59;60.87;100313.22;5072764;28;20086;-67
2023/06/15 06:07:32;;;;;;;4.32;2.35;;;;;;;17.50;61.08;100309.97;5073995;28;20028;-65
2023/06/15 06:09:58;;;;;;;3.20;2.67;;;;;;;17.61;60.50;100303.06;5072510;28;20036;-66
2023/06/15 06:12:23;;;;;;;2.97;2.50;;;;;;;17.63;60.46;100303.66;5072582;28;20129;-66
2023/06/15 06:14:49;;;;;;;3.50;2.63;;;;;;;17.63;61.15;100306.34;5072724;28;20028;-66
2023/06/15 06:17:14;;;;;;;3.75;2.55;;;;;;;17.55;61.16;100306.63;5072553;28;20082;-67
2023/06/15 06:19:40;;;;;;;3.80;2.50;;;;;;;17.44;62.21;100305.44;5072363;28;20032;-67
2023/06/15 06:22:05;;;;;;;4.80;2.90;;;;;;;17.50;62.34;100312.66;5072417;28;20504;-67
2023/06/15 06:24:31;;;;;;;4.90;2.38;;;;;;;17.71;61.57;100313.34;5055805;28;20059;-66
2023/06/15 06:27:00;;;;;;;4.07;2.35;;;;;;;17.70;61.53;100314.41;5072383;28;20046;-66
2023/06/15 06:29:25;;;;;;;3.00;2.55;;;;;;;17.70;62.34;100307.13;5073339;28;20493;-66
2023/06/15 06:31:50;;;;;;;3.50;2.22;;;;;;;17.78;62.66;100303.38;5073561;28;20040;-61
2023/06/15 06:34:16;;;;;;;3.33;2.67;;;;;;;17.85;62.15;100312.22;5073661;28;20082;-62
2023/06/15 06:36:41;;;;;;;10.82;3.10;;;;;;;17.95;61.61;100315.28;5072306;28;20043;-62
2023/06/15 06:39:07;;;;;;;3.67;2.53;;;;;;;18.00;61.55;100310.06;5073125;28;20036;-62
2023/06/15 06:41:32;;;;;;;3.70;2.67;;;;;;;17.98;61.52;100309.44;5073358;28;20456;-63
2023/06/15 06:43:58;;;;;;;3.22;2.88;;;;;;;18.21;61.18;100314.22;5071378;28;20044;-63
2023/06/15 06:46:23;;;;;;;5.18;2.67;;;;;;;18.27;61.09;100312.50;5073146;28;20036;-62
2023/06/15 06:48:49;;;;;;;3.33;2.50;;;;;;;18.25;60.87;100310.00;5072961;28;20465;-63
2023/06/15 06:51:15;;;;;;;3.47;2.80;;;;;;;18.26;60.41;100322.47;5073223;28;20040;-62
2023/06/15 06:53:40;;;;;;;4.13;2.58;;;;;;;18.39;60.11;100321.53;5073228;28;20069;-63
2023/06/15 06:56:06;;;;;;;3.28;2.63;;;;;;;18.27;59.37;100326.00;5073161;28;20044;-63
2023/06/15 06:58:31;;;;;;;4.43;2.85;;;;;;;18.36;59.93;100320.09;5072765;28;20036;-62
2023/06/15 07:00:57;;;;;;;3.97;2.50;;;;;;;18.54;59.37;100319.28;5073063;28;20032;-63
2023/06/15 07:03:22;;;;;;;3.13;2.60;;;;;;;18.58;58.74;100312.41;5071729;28;20131;-61
2023/06/15 07:05:48;;;;;;;4.00;3.00;;;;;;;18.67;57.68;100323.75;5072897;28;20071;-63
2023/06/15 07:08:13;;;;;;;4.65;3.20;;;;;;;18.72;57.68;100323.09;5072828;28;20043;-62
2023/06/15 07:10:38;;;;;;;3.65;2.67;;;;;;;18.85;57.60;100326.44;5072507;28;20048;-63
2023/06/15 07:13:04;;;;;;;5.97;3.03;;;;;;;18.81;57.27;100330.63;5072754;28;20048;-63
2023/06/15 07:15:31;;;;;;;4.25;2.90;;;;;;;18.83;57.49;100319.63;5072656;28;20037;-63
2023/06/15 07:17:57;;;;;;;3.88;2.55;;;;;;;18.95;57.84;100320.50;5072692;28;20032;-63
2023/06/15 07:20:23;;;;;;;4.68;3.03;;;;;;;19.07;56.18;100318.69;5072139;28;20037;-63
2023/06/15 07:22:48;;;;;;;3.53;3.05;;;;;;;19.15;55.70;100322.97;5072504;28;20044;-61
2023/06/15 07:25:14;;;;;;;3.85;3.10;;;;;;;19.43;56.45;100317.81;5072331;28;20044;-63
2023/06/15 07:27:39;;;;;;;4.00;2.85;;;;;;;19.45;54.89;100314.88;5072572;28;20130;-63
2023/06/15 07:30:05;;;;;;;3.28;2.47;;;;;;;19.61;54.69;100308.84;5072310;28;20044;-63
2023/06/15 07:32:31;;;;;;;3.42;2.72;;;;;;;19.68;54.46;100314.97;5072298;28;20045;-63
2023/06/15 07:34:56;;;;;;;4.60;2.92;;;;;;;19.72;54.97;100315.34;5072375;28;20120;-62
2023/06/15 07:37:22;;;;;;;5.65;3.33;;;;;;;20.07;53.86;100315.38;5072127;28;20392;-63
2023/06/15 07:39:47;;;;;;;4.95;2.67;;;;;;;19.96;54.55;100314.34;5071892;28;20036;-63
2023/06/15 07:42:13;;;;;;;3.72;3.03;;;;;;;20.15;54.72;100317.75;5072229;28;20051;-63
2023/06/15 07:44:38;;;;;;;4.20;3.25;;;;;;;20.31;53.79;100317.03;5072151;28;20102;-63
2023/06/15 07:47:04;;;;;;;3.60;3.17;;;;;;;20.40;53.09;100322.09;5072144;28;20047;-63
2023/06/15 07:49:29;;;;;;;3.30;2.70;;;;;;;20.43;53.40;100310.81;5071932;28;20547;-63
2023/06/15 07:51:55;;;;;;;3.65;2.88;;;;;;;20.47;53.06;100315.53;5071936;28;20101;-63
2023/06/15 07:54:20;;;;;;;3.70;2.90;;;;;;;20.65;53.13;100311.88;5072279;28;20040;-62
2023/06/15 07:56:46;;;;;;;4.80;2.97;;;;;;;20.73;52.08;100311.50;5070435;28;20053;-63
2023/06/15 07:59:12;;;;;;;4.28;2.97;;;;;;;20.63;52.26;100305.06;5072061;28;20123;-63
2023/06/15 08:01:37;;;;;;;4.70;3.00;;;;;;;20.71;52.22;100313.63;5070763;28;20167;-62
2023/06/15 08:04:03;;;;;;;5.68;3.22;;;;;;;20.84;52.40;100324.19;5071965;28;20473;-62
2023/06/15 08:06:28;;;;;;;3.50;2.97;;;;;;;20.84;51.60;100320.66;5071860;28;20115;-63
2023/06/15 08:08:53;;;;;;;3.85;2.92;;;;;;;20.90;51.86;100327.00;5071644;28;20035;-61
2023/06/15 08:11:19;;;;;;;4.53;3.10;;;;;;;21.02;50.92;100323.22;5071812;28;20090;-62
2023/06/15 08:13:44;;;;;;;3.72;3.20;;;;;;;20.94;50.61;100317.34;5071897;28;20044;-62
2023/06/15 08:16:10;;;;;;;6.07;3.60;;;;;;;20.95;50.58;100319.00;5071841;28;20519;-62
2023/06/15 08:18:35;;;;;;;3.70;3.13;;;;;;;21.06;51.00;100320.81;5071572;28;20044;-63
2023/06/15 08:21:01;;;;;;;4.10;3.00;;;;;;;21.43;50.32;100315.06;5071718;28;20094;-62
2023/06/15 08:23:27;;;;;;;4.22;2.90;;;;;;;21.26;49.02;100325.84;5070330;28;20127;-62
2023/06/15 08:25:52;;;;;;;5.88;3.25;;;;;;;21.50;47.95;100318.47;5071700;28;20123;-62
2023/06/15 08:28:21;;;;;;;3.42;3.13;;;;;;;21.60;48.25;100305.91;5071497;28;20033;-63
2023/06/15 08:30:46;;;;;;;3.42;2.92;;;;;;;21.57;47.19;100302.88;5071980;28;20044;-63
2023/06/15 08:33:12;;;;;;;4.32;2.95;;;;;;;21.85;47.49;100310.97;5071594;28;20393;-62
2023/06/15 08:35:37;;;;;;;4.35;3.10;;;;;;;22.01;47.46;100308.50;5071509;28;20040;-64
2023/06/15 08:38:03;;;;;;;4.15;2.80;;;;;;;22.33;47.24;100311.47;5071630;28;20051;-62
2023/06/15 08:40:28;;;;;;;3.85;3.17;;;;;;;22.29;46.78;100313.84;5071536;28;20033;-62
2023/06/15 08:42:55;;;;;;;4.75;3.58;;;;;;;22.37;46.86;100309.91;5071557;28;20516;-62
2023/06/15 08:45:20;;;;;;;5.47;3.53;;;;;;;22.62;45.47;100307.50;5071692;28;20041;-62
2023/06/15 08:47:46;;;;;;;4.13;3.17;;;;;;;22.79;45.14;100307.47;5071537;28;20039;-62
2023/06/15 08:50:12;;;;;;;5.75;3.28;;;;;;;22.77;44.73;100308.81;5071240;28;20499;-63
2023/06/15 08:52:41;;;;;;;3.97;3.33;;;;;;;22.60;45.91;100314.28;5071364;28;20128;-62
2023/06/15 08:55:08;;;;;;;4.03;3.20;;;;;;;22.76;46.55;100305.28;5071377;28;20044;-62
2023/06/15 08:57:35;;;;;;;5.25;3.67;;;;;;;22.65;45.82;100311.63;5071416;28;20049;-63
2023/06/15 09:00:08;;;;;;;3.97;3.37;;;;;;;23.25;45.46;100310.75;5071201;28;20033;-62
2023/06/15 09:02:40;;;;;;;3.95;3.08;;;;;;;23.44;44.63;100314.78;5071421;28;20847;-62
2023/06/15 09:05:06;;;;;;;4.18;3.20;;;;;;;23.28;44.08;100293.97;5071646;28;20047;-63
2023/06/15 09:07:32;;;;;;;6.78;3.75;;;;;;;23.53;44.21;100306.97;5071996;28;20119;-62
2023/06/15 09:10:16;;;;;;;5.03;3.30;;;;;;;24.01;43.51;100313.41;5074922;28;20040;-63
2023/06/15 09:12:43;;;;;;;5.05;3.28;;;;;;;24.16;42.93;100315.41;5075213;28;20078;-63
2023/06/15 09:15:09;;;;;;;5.00;3.38;;;;;;;24.16;42.14;100318.13;5074855;28;20086;-63
2023/06/15 09:17:39;;;;;;;4.88;3.25;;;;;;;24.35;42.12;100316.66;5073702;28;20032;-63
2023/06/15 09:20:06;;;;;;;5.03;3.25;;;;;;;24.02;42.16;100317.78;5074620;28;20037;-63
2023/06/15 09:22:38;;;;;;;4.20;3.28;;;;;;;24.44;42.60;100312.38;5074822;28;20112;-63
2023/06/15 09:25:11;;;;;;;3.60;3.20;;;;;;;24.43;41.29;100309.91;5074848;28;20086;-60
2023/06/15 09:27:36;;;;;;;6.55;3.40;;;;;;;24.41;41.22;100312.91;5074894;28;20429;-63
2023/06/15 09:30:05;;;;;;;3.83;3.22;;;;;;;24.92;41.25;100306.91;5074496;28;20124;-61
2023/06/15 09:32:31;;;;;;;5.97;3.47;;;;;;;24.98;41.29;100314.00;5074480;28;20036;-63
2023/06/15 09:35:00;;;;;;;4.22;3.30;;;;;;;25.04;39.20;100308.34;5074634;28;20040;-63
2023/06/15 09:37:27;;;;;;;4.68;3.30;;;;;;;25.10;39.90;100304.56;5074482;28;20049;-62
2023/06/15 09:39:53;;;;;;;3.45;2.88;;;;;;;25.44;39.59;100296.72;5074355;28;20071;-63
2023/06/15 09:42:27;;;;;;;4.28;3.05;;;;;;;25.84;38.88;100307.97;5074540;28;20478;-63
2023/06/15 09:44:56;;;;;;;3.50;3.17;;;;;;;24.85;39.17;100298.97;5074455;28;20500;-63
2023/06/15 09:47:28;;;;;;;4.53;3.28;;;;;;;25.51;38.33;100304.63;5074438;28;20040;-63
2023/06/15 09:49:54;;;;;;;4.65;3.35;;;;;;;25.80;38.70;100304.94;5074190;28;20090;-63
2023/06/15 09:52:20;;;;;;;3.63;3.05;;;;;;;26.06;38.09;100303.03;5074246;28;20037;-63
2023/06/15 09:54:47;;;;;;;4.03;3.53;;;;;;;26.06;37.06;100294.84;5074402;28;20458;-63
2023/06/15 09:57:13;;;;;;;3.65;2.92;;;;;;;26.29;36.67;100298.91;5074301;28;20043;-63
2023/06/15 09:59:39;;;;;;;4.15;3.40;;;;;;;26.53;37.26;100304.59;5074043;28;20060;-63
2023/06/15 10:02:10;;;;;;;4.23;3.17;;;;;;;26.73;36.06;100292.78;5074270;28;20036;-61
2023/06/15 10:04:40;;;;;;;5.30;3.13;;;;;;;27.12;35.42;100290.19;5074205;28;20047;-64
2023/06/15 10:07:10;;;;;;;4.00;3.25;;;;;;;26.96;33.71;100294.88;5074013;28;20490;-61
2023/06/15 10:09:44;;;;;;;4.03;2.90;;;;;;;26.93;34.07;100305.56;5073759;28;20044;-63
2023/06/15 10:12:22;;;;;;;4.18;3.05;;;;;;;26.93;33.29;100292.72;5073958;28;20425;-63
2023/06/15 10:15:10;;;;;;;5.10;3.15;;;;;;;27.15;33.74;100292.38;5074020;28;20036;-63
2023/06/15 10:17:40;;;;;;;4.28;3.28;;;;;;;27.19;33.04;100293.44;5073940;28;20049;-61
2023/06/15 10:20:12;;;;;;;3.70;3.15;;;;;;;27.37;32.19;100291.94;5073137;28;20048;-62
2023/06/15 10:22:48;;;;;;;3.30;2.80;;;;;;;27.61;31.83;100286.59;5073877;28;20087;-62
2023/06/15 10:25:15;;;;;;;4.00;3.10;;;;;;;28.10;30.50;100291.97;5073931;28;20443;-60
2023/06/15 10:27:40;;;;;;;;;;;;;;;27.93;30.60;100290.75;5074142;28;20067;-62
2023/06/15 10:30:15;;;;;;;4.20;3.03;;;;;;;27.98;31.67;100296.19;5073415;28;19947;-61
2023/06/15 10:32:54;;;;;;;3.58;2.88;;;;;;;28.34;30.32;100294.75;5073543;28;20040;-61
2023/06/15 10:35:32;;;;;;;3.03;2.58;;;;;;;28.61;29.25;100298.84;5072370;28;20044;-62
2023/06/15 10:38:15;;;;;;;3.72;2.53;;;;;;;28.59;28.56;100303.78;5073579;28;20036;-61
2023/06/15 10:40:48;;;;;;;6.88;3.10;;;;;;;28.75;29.18;100293.47;5073375;28;20470;-60
2023/06/15 10:43:24;;;;;;;3.85;2.70;;;;;;;28.95;28.85;100286.94;5073431;28;20528;-62
2023/06/15 10:45:50;;;;;;;3.80;3.10;;;;;;;28.84;29.09;100289.78;5073326;28;20070;-61
2023/06/15 10:48:25;;;;;;;3.70;2.90;;;;;;;28.83;29.54;100293.66;5073152;28;20036;-60
2023/06/15 10:50:51;;;;;;;5.28;3.00;;;;;;;29.24;28.06;100287.63;5073123;28;20032;-61
2023/06/15 10:53:25;;;;;;;5.03;3.35;;;;;;;29.53;27.85;100283.94;5073268;28;20115;-62
2023/06/15 10:55:58;;;;;;;3.40;2.65;;;;;;;30.16;26.38;100273.28;5072932;28;20067;-62
2023/06/15 10:58:26;;;;;;;3.58;2.33;;;;;;;29.67;27.82;100284.81;5072809;28;20040;-62
2023/06/15 11:01:15;;;;;;;4.00;2.88;;;;;;;30.19;27.20;100283.66;5073006;28;20035;-61
2023/06/15 11:03:41;;;;;;;4.00;3.10;;;;;;;30.57;26.42;100277.97;5072938;28;20094;-60
2023/06/15 11:06:15;;;;;;;4.53;2.75;;;;;;;30.40;26.51;100284.09;5072827;28;20037;-61
2023/06/15 11:08:46;;;;;;;3.38;2.85;;;;;;;30.41;25.56;100279.41;5072615;28;20429;-61
2023/06/15 11:11:12;;;;;;;4.43;3.20;;;;;;;30.29;25.81;100274.41;5072885;28;20040;-62
2023/06/15 11:14:04;;;;;;;4.57;3.10;;;;;;;30.51;25.34;100279.19;5072837;28;20123;-62
2023/06/15 11:16:35;;;;;;;5.85;2.55;;;;;;;30.73;25.60;100284.84;5072582;28;20289;-61
2023/06/15 11:19:12;;;;;;;3.50;2.75;;;;;;;30.95;25.53;100273.09;5072195;28;20103;-61
2023/06/15 11:21:59;;;;;;;4.85;2.97;;;;;;;30.90;25.57;100273.19;5072468;28;20039;-62
2023/06/15 11:24:25;;;;;;;;;;;;;;;31.13;24.60;100267.75;5071755;28;20037;-62
2023/06/15 11:26:50;;;;;;;3.90;2.90;;;;;;;31.58;24.84;100272.22;5072489;28;19916;-63
2023/06/15 11:29:22;;;;;;;3.97;3.13;;;;;;;31.92;23.87;100265.31;5067941;28;20379;-63
2023/06/15 11:31:49;;;;;;;3.25;2.70;;;;;;;32.27;24.13;100271.81;5062494;28;20120;-63
2023/06/15 11:34:15;;;;;;;4.70;3.00;;;;;;;31.77;24.58;100268.47;5060285;28;20044;-63
2023/06/15 11:36:41;;;;;;;3.20;2.80;;;;;;;32.23;23.64;100267.28;5061853;28;20025;-63
2023/06/15 11:39:07;;;;;;;4.30;3.17;;;;;;;32.16;23.42;100269.69;5060939;28;20029;-63
2023/06/15 11:41:33;;;;;;;3.97;3.05;;;;;;;31.98;23.61;100261.31;5062846;28;20032;-63
2023/06/15 11:43:58;;;;;;;4.10;3.17;;;;;;;32.35;24.04;100262.81;5061654;28;20132;-62
2023/06/15 11:46:24;;;;;;;3.57;2.97;;;;;;;31.74;23.30;100256.13;5061387;28;20036;-62
2023/06/15 11:48:55;;;;;;;3.42;2.80;;;;;;;32.40;23.10;100259.09;5062513;28;20039;-62
2023/06/15 11:51:21;;;;;;;5.88;3.08;;;;;;;32.17;22.98;100252.00;5061824;28;20037;-62
2023/06/15 11:53:46;;;;;;;2.80;2.53;;;;;;;32.05;23.91;100244.34;5060847;28;20426;-62
2023/06/15 11:56:14;;;;;;;4.07;3.23;;;;;;;32.43;23.55;100249.38;5062751;28;20126;-62
2023/06/15 11:58:44;;;;;;;3.67;2.78;;;;;;;31.42;23.59;100248.91;5061266;28;20037;-63
2023/06/15 12:01:12;;;;;;;3.25;2.67;;;;;;;30.30;24.73;100248.56;5064285;28;20032;-62
2023/06/15 12:03:40;;;;;;;4.50;3.45;;;;;;;29.71;25.21;100244.66;5059202;28;20075;-62
2023/06/15 12:06:06;;;;;;;3.38;2.67;;;;;;;30.49;24.25;100242.97;5060404;28;20044;-61
2023/06/15 12:08:32;;;;;;;3.58;2.90;;;;;;;30.89;25.25;100248.75;5061015;28;20094;-61
2023/06/15 12:10:59;;;;;;;4.70;3.57;;;;;;;31.19;24.49;100236.25;5062329;28;20493;-61
2023/06/15 12:13:25;;;;;;;4.30;2.97;;;;;;;31.50;23.79;100237.19;5060840;28;20060;-62
2023/06/15 12:15:51;;;;;;;4.10;3.10;;;;;;;31.96;23.51;100240.75;5063180;28;20477;-61
2023/06/15 12:18:17;;;;;;;5.73;3.77;;;;;;;32.04;24.28;100229.75;5057566;28;20035;-62
2023/06/15 12:20:47;;;;;;;4.70;3.55;;;;;;;32.55;23.14;100225.59;5060373;28;20093;-62
2023/06/15 12:23:31;;;;;;;4.22;3.08;;;;;;;32.46;23.27;100233.00;5061128;28;20036;-62
2023/06/15 12:25:59;;;;;;;4.03;3.13;;;;;;;32.60;23.57;100233.72;5062342;28;20877;-60
2023/06/15 12:28:27;;;;;;;4.90;3.72;;;;;;;31.96;23.47;100226.97;5062945;28;20033;-62
2023/06/15 12:30:58;;;;;;;4.03;3.08;;;;;;;31.73;23.25;100215.13;5071681;28;20040;-61
2023/06/15 12:33:36;;;;;;;8.32;3.42;;;;;;;31.94;23.88;100226.44;5068503;28;20541;-62
2023/06/15 12:36:07;;;;;;;3.33;2.97;;;;;;;32.71;22.67;100220.44;5060860;28;20124;-62
2023/06/15 12:38:32;;;;;;;4.00;3.00;;;;;;;32.82;23.17;100219.00;5059980;28;20037;-62
2023/06/15 12:40:57;;;;;;;3.90;3.03;;;;;;;33.48;21.54;100214.16;5062215;28;20028;-62
2023/06/15 12:43:26;;;;;;;4.30;3.70;;;;;;;33.14;22.07;100219.69;5063384;28;20057;-61
2023/06/15 12:45:54;;;;;;;4.55;3.50;;;;;;;33.08;22.02;100216.28;5064046;28;20482;-61
2023/06/15 12:48:20;;;;;;;3.85;3.00;;;;;;;32.60;22.79;100219.94;5063990;28;20044;-60
2023/06/15 12:50:46;;;;;;;3.67;2.88;;;;;;;33.64;21.14;100211.69;5064780;28;20037;-62
2023/06/15 12:53:12;;;;;;;3.90;2.80;;;;;;;33.12;22.27;100217.25;5066133;28;20036;-62
2023/06/15 12:55:37;;;;;;;3.73;3.17;;;;;;;33.35;22.20;100208.81;5064084;28;20032;-63
2023/06/15 12:58:03;;;;;;;3.53;3.10;;;;;;;33.92;21.88;100206.63;5066404;28;20167;-61
2023/06/15 13:00:29;;;;;;;3.60;2.80;;;;;;;33.89;21.36;100201.72;5060914;28;20041;-62
2023/06/15 13:02:57;;;;;;;4.30;3.00;;;;;;;32.93;21.05;100205.75;5055329;28;20033;-63
2023/06/15 13:05:23;;;;;;;3.92;3.10;;;;;;;32.12;22.33;100209.69;5055266;28;20122;-62
2023/06/15 13:07:48;;;;;;;3.23;2.93;;;;;;;31.79;23.03;100205.66;5060934;28;20127;-62
2023/06/15 13:10:14;;;;;;;4.47;3.07;;;;;;;30.94;23.82;100205.47;5069190;28;20040;-62
2023/06/15 13:12:40;;;;;;;4.88;2.70;;;;;;;30.08;23.99;100205.28;5075248;28;20064;-62
2023/06/15 13:15:06;;;;;;;5.87;3.50;;;;;;;30.53;23.36;100200.03;5075164;28;20102;-61
2023/06/15 13:17:35;;;;;;;3.97;3.13;;;;;;;30.37;24.22;100194.03;5074970;28;20062;-62
2023/06/15 13:20:05;;;;;;;4.97;3.40;;;;;;;30.71;23.88;100196.38;5074778;28;20044;-63
2023/06/15 13:22:31;;;;;;;3.55;2.78;;;;;;;29.37;24.42;100195.56;5074724;28;20474;-62
2023/06/15 13:24:56;;;;;;;3.38;3.03;;;;;;;29.55;25.12;100202.16;5074823;28;20039;-62
2023/06/15 13:27:21;;;;;;;6.30;3.07;;;;;;;29.41;24.70;100197.41;5074731;28;20059;-63
2023/06/15 13:29:47;;;;;;;3.78;3.17;;;;;;;29.21;24.99;100189.47;5074528;28;20055;-62
2023/06/15 13:32:12;;;;;;;4.25;3.08;;;;;;;29.16;24.97;100195.06;5074733;28;20116;-62
2023/06/15 13:34:38;;;;;;;6.25;3.55;;;;;;;28.59;25.57;100194.19;5074749;28;20481;-62
2023/06/15 13:37:03;;;;;;;4.60;3.40;;;;;;;28.75;25.69;100190.13;5074677;28;20044;-62
2023/06/15 13:39:29;;;;;;;3.72;3.22;;;;;;;28.52;26.61;100191.00;5074412;28;20046;-63
2023/06/15 13:41:55;;;;;;;8.88;3.65;;;;;;;28.57;27.70;100196.44;5074572;28;20075;-62
2023/06/15 13:44:20;;;;;;;3.55;2.83;;;;;;;28.49;26.46;100197.06;5074592;28;20032;-62
2023/06/15 13:46:46;;;;;;;4.82;2.90;;;;;;;28.22;26.51;100201.19;5074465;28;20445;-62
2023/06/15 13:49:11;;;;;;;4.13;3.40;;;;;;;28.03;27.62;100203.03;5074270;28;20043;-63
2023/06/15 13:51:37;;;;;;;4.35;3.20;;;;;;;27.99;27.25;100202.00;5074404;28;20045;-63
2023/06/15 13:54:04;;;;;;;5.20;3.03;;;;;;;27.61;27.96;100198.25;5073999;28;20109;-63
2023/06/15 13:56:29;;;;;;;3.67;2.90;;;;;;;27.81;27.83;100200.81;5074429;28;20041;-63
2023/06/15 13:58:56;;;;;;;3.00;2.55;;;;;;;27.66;27.62;100200.94;5073963;28;20513;-63
2023/06/15 14:01:23;;;;;;;4.05;3.08;;;;;;;27.64;28.17;100192.19;5074076;28;20136;-63
2023/06/15 14:03:49;;;;;;;4.57;3.05;;;;;;;27.60;29.20;100191.97;5074229;28;20028;-63
2023/06/15 14:06:15;;;;;;;4.60;3.17;;;;;;;27.65;28.50;100188.34;5074040;28;20038;-63
2023/06/15 14:08:41;;;;;;;3.92;2.90;;;;;;;27.85;27.10;100188.19;5073647;28;20485;-61
2023/06/15 14:11:07;;;;;;;4.10;3.00;;;;;;;27.52;28.57;100185.19;5073984;28;20063;-63
2023/06/15 14:13:33;;;;;;;5.07;3.45;;;;;;;27.23;27.65;100181.59;5074230;28;20439;-62
2023/06/15 14:15:58;;;;;;;5.00;3.40;;;;;;;27.27;28.39;100188.13;5073806;28;20056;-63
2023/06/15 14:18:24;;;;;;;5.32;3.28;;;;;;;27.18;28.19;100185.16;5073675;28;20064;-63
2023/06/15 14:20:49;;;;;;;6.18;3.42;;;;;;;26.88;28.71;100180.72;5073641;28;20036;-62
2023/06/15 14:23:15;;;;;;;5.40;3.03;;;;;;;26.95;29.51;100180.41;5073796;28;20028;-62
2023/06/15 14:25:41;;;;;;;6.78;3.42;;;;;;;26.80;28.41;100175.84;5073648;28;20039;-61
2023/06/15 14:28:06;;;;;;;5.97;3.25;;;;;;;27.07;29.65;100178.16;5073746;28;20047;-61
2023/06/15 14:30:32;;;;;;;5.85;3.70;;;;;;;27.41;28.66;100177.34;5073073;28;20496;-62
2023/06/15 14:32:58;;;;;;;4.30;3.08;;;;;;;27.30;28.43;100182.91;5073594;28;20040;-62
2023/06/15 14:35:24;;;;;;;4.20;2.92;;;;;;;27.24;28.84;100186.75;5073407;28;20554;-61
2023/06/15 14:37:51;;;;;;;4.35;3.10;;;;;;;27.08;29.26;100182.53;5073365;28;20557;-63
2023/06/15 14:40:16;;;;;;;4.28;2.85;;;;;;;26.87;29.32;100178.28;5073097;28;20119;-62
2023/06/15 14:42:48;;;;;;;3.60;2.70;;;;;;;26.67;30.04;100185.50;5073440;28;20051;-61
2023/06/15 14:45:16;;;;;;;5.38;3.40;;;;;;;26.65;30.39;100184.94;5073337;28;20086;-61
2023/06/15 14:47:42;;;;;;;3.42;2.78;;;;;;;26.57;29.98;100180.06;5073261;28;20020;-62
2023/06/15 14:50:08;;;;;;;5.03;3.25;;;;;;;26.66;29.94;100178.38;5072873;28;20040;-62
2023/06/15 14:52:33;;;;;;;7.67;3.23;;;;;;;26.45;30.28;100179.56;5073005;28;20498;-63
2023/06/15 14:55:02;;;;;;;4.30;3.33;;;;;;;26.55;29.93;100185.00;5073072;28;20302;-61
2023/06/15 14:57:29;;;;;;;3.65;2.95;;;;;;;26.55;30.53;100171.34;5073066;28;20072;-62
2023/06/15 14:59:54;;;;;;;4.35;3.22;;;;;;;26.55;30.92;100173.25;5072627;28;20055;-61
2023/06/15 15:02:20;;;;;;;4.88;3.55;;;;;;;26.39;30.32;100175.19;5072877;28;20040;-62
2023/06/15 15:04:46;;;;;;;4.57;3.25;;;;;;;26.46;30.24;100173.00;5072293;28;20044;-62
2023/06/15 15:07:11;;;;;;;3.88;3.03;;;;;;;26.41;31.09;100168.41;5072488;28;20170;-62
2023/06/15 15:09:37;;;;;;;3.92;3.30;;;;;;;26.20;31.40;100162.16;5072510;28;20098;-62
2023/06/15 15:12:03;;;;;;;3.80;3.38;;;;;;;26.22;31.32;100170.09;5072688;28;20048;-62
2023/06/15 15:14:28;;;;;;;6.28;3.45;;;;;;;25.95;30.73;100164.97;5072773;28;20047;-63
2023/06/15 15:16:54;;;;;;;5.13;3.40;;;;;;;25.91;31.51;100162.00;5071406;28;20037;-62
2023/06/15 15:19:19;;;;;;;4.78;3.20;;;;;;;25.84;32.04;100166.09;5072371;28;20032;-63
2023/06/15 15:21:45;;;;;;;5.00;3.50;;;;;;;25.91;32.94;100155.72;5072511;28;20444;-63
2023/06/15 15:24:10;;;;;;;6.90;3.63;;;;;;;25.98;33.55;100161.69;5072428;28;20064;-62
2023/06/15 15:26:35;;;;;;;5.07;3.33;;;;;;;26.04;32.87;100160.59;5072443;28;20040;-61
2023/06/15 15:29:01;;;;;;;4.22;3.28;;;;;;;26.04;33.05;100160.59;5072153;28;20036;-61
2023/06/15 15:31:27;;;;;;;3.80;3.30;;;;;;;26.04;32.83;100157.84;5072378;28;20086;-61
2023/06/15 15:33:53;;;;;;;7.67;3.50;;;;;;;26.12;32.73;100160.00;5072406;28;20044;-63
2023/06/15 15:36:18;;;;;;;4.47;3.65;;;;;;;26.21;32.13;100160.25;5072300;28;20369;-63
2023/06/15 15:38:44;;;;;;;4.80;3.38;;;;;;;26.33;31.82;100166.19;5071989;28;20036;-63
2023/06/15 15:41:10;;;;;;;6.47;3.42;;;;;;;26.12;31.10;100146.34;5072240;28;20370;-61
2023/06/15 15:43:35;;;;;;;4.80;3.47;;;;;;;26.21;31.45;100150.16;5072201;28;20036;-63
2023/06/15 15:46:01;;;;;;;4.63;3.00;;;;;;;26.25;31.65;100156.69;5072077;28;20422;-59
2023/06/15 15:48:27;;;;;;;5.82;3.60;;;;;;;26.43;31.93;100162.66;5072025;28;20056;-58